createdAt,value
2024-03-04T00:02:29.019Z,51.00
2024-03-04T00:04:59.341Z,52.25
2024-03-04T00:07:29.292Z,49.63
2024-03-04T00:09:59.690Z,54.78
2024-03-04T00:12:30.225Z,49.25
2024-03-04T00:15:00.483Z,52.53
2024-03-04T00:17:31.817Z,54.63
2024-03-04T00:20:08.688Z,54.83
2024-03-04T00:22:39.485Z,51.72
2024-03-04T00:25:11.415Z,49.13
2024-03-04T00:27:41.617Z,48.42
2024-03-04T00:30:14.964Z,49.17
2024-03-04T00:32:45.313Z,46.03
2024-03-04T00:35:16.276Z,46.88
2024-03-04T00:37:46.700Z,44.85
2024-03-04T00:40:16.783Z,44.83
2024-03-04T00:42:46.989Z,44.83
2024-03-04T00:45:16.867Z,44.65
2024-03-04T00:47:50.201Z,42.10
2024-03-04T00:50:20.830Z,43.15
2024-03-04T00:52:51.085Z,53.53
2024-03-04T00:55:23.094Z,49.22
2024-03-04T00:57:54.274Z,43.70
2024-03-04T01:00:27.636Z,51.53
2024-03-04T01:02:57.770Z,41.90
2024-03-04T01:05:27.697Z,46.80
2024-03-04T01:07:57.811Z,47.85
2024-03-04T01:10:27.753Z,44.22
2024-03-04T01:12:58.084Z,47.47
2024-03-04T01:15:28.591Z,43.65
2024-03-04T01:17:59.546Z,45.63
2024-03-04T01:20:30.324Z,45.42
2024-03-04T01:23:00.233Z,45.90
2024-03-04T01:25:30.136Z,46.20
2024-03-04T01:28:00.806Z,47.03
2024-03-04T01:30:30.735Z,47.72
2024-03-04T01:33:02.197Z,45.28
2024-03-04T01:35:32.719Z,63.13
2024-03-04T01:38:02.904Z,58.17
2024-03-04T01:40:33.305Z,49.05
2024-03-04T01:43:03.281Z,47.85
2024-03-04T01:45:34.473Z,46.38
2024-03-04T01:48:07.269Z,54.97
2024-03-04T01:50:41.832Z,45.70
2024-03-04T01:53:12.738Z,42.95
2024-03-04T01:56:06.503Z,45.30
2024-03-04T01:58:41.862Z,43.90
2024-03-04T02:01:12.560Z,43.40
2024-03-04T02:03:42.614Z,43.95
2024-03-04T02:06:12.717Z,42.03
2024-03-04T02:08:42.905Z,43.58
2024-03-04T02:11:15.231Z,43.67
2024-03-04T02:13:45.399Z,42.65
2024-03-04T02:16:16.016Z,41.47
2024-03-04T02:18:46.760Z,41.22
2024-03-04T02:21:22.912Z,41.40
2024-03-04T02:23:53.192Z,37.60
2024-03-04T02:26:23.063Z,37.22
2024-03-04T02:28:53.065Z,37.85
2024-03-04T02:31:23.514Z,37.67
2024-03-04T02:33:54.915Z,35.50
2024-03-04T02:36:25.883Z,37.00
2024-03-04T02:38:56.406Z,37.25
2024-03-04T02:41:29.085Z,36.42
2024-03-04T02:43:59.132Z,35.65
2024-03-04T02:46:29.536Z,36.30
2024-03-04T02:49:00.145Z,33.65
2024-03-04T02:51:30.383Z,34.35
2024-03-04T02:54:01.220Z,33.95
2024-03-04T02:56:31.494Z,35.25
2024-03-04T02:59:01.676Z,36.65
2024-03-04T03:01:31.846Z,37.05
2024-03-04T03:04:01.779Z,35.70
2024-03-04T03:06:32.087Z,35.38
2024-03-04T03:09:03.191Z,36.47
2024-03-04T03:11:33.604Z,37.53
2024-03-04T03:14:03.729Z,37.90
2024-03-04T03:16:37.996Z,51.92
2024-03-04T03:19:07.881Z,56.00
2024-03-04T03:21:38.758Z,53.55
2024-03-04T03:24:08.710Z,38.70
2024-03-04T03:26:38.970Z,49.72
2024-03-04T03:29:09.390Z,48.45
2024-03-04T03:31:40.287Z,49.20
2024-03-04T03:34:10.828Z,45.97
2024-03-04T03:36:46.917Z,48.50
2024-03-04T03:39:17.540Z,38.33
2024-03-04T03:41:47.671Z,37.00
2024-03-04T03:44:17.800Z,37.72
2024-03-04T03:46:48.348Z,37.97
2024-03-04T03:49:19.431Z,37.90
2024-03-04T03:51:49.615Z,35.95
2024-03-04T03:54:19.406Z,39.47
2024-03-04T03:56:49.633Z,38.45
2024-03-04T03:59:19.782Z,36.67
2024-03-04T04:01:49.946Z,37.08
2024-03-04T04:04:20.566Z,37.67
2024-03-04T04:06:50.638Z,36.65
2024-03-04T04:09:20.548Z,40.08
2024-03-04T04:11:50.593Z,40.58
2024-03-04T04:14:20.489Z,39.72
2024-03-04T04:16:52.015Z,36.03
2024-03-04T04:19:22.358Z,40.63
2024-03-04T04:21:54.328Z,39.25
2024-03-04T04:24:24.551Z,40.50
2024-03-04T04:26:54.442Z,39.58
2024-03-04T04:29:24.625Z,40.15
2024-03-04T04:31:54.403Z,40.63
2024-03-04T04:34:24.979Z,40.72
2024-03-04T04:36:56.826Z,39.53
2024-03-04T04:39:28.704Z,39.92
2024-03-04T04:41:59.626Z,39.08
2024-03-04T04:44:29.940Z,39.60
2024-03-04T04:46:59.792Z,40.28
2024-03-04T04:49:29.882Z,39.90
2024-03-04T04:51:59.887Z,39.92
2024-03-04T04:54:30.217Z,40.53
2024-03-04T04:57:00.149Z,40.50
2024-03-04T04:59:30.353Z,39.70
2024-03-04T05:02:00.759Z,39.80
2024-03-04T05:04:43.875Z,45.00
2024-03-04T05:07:21.285Z,42.30
2024-03-04T05:09:51.341Z,41.63
2024-03-04T05:12:22.378Z,40.53
2024-03-04T05:14:53.161Z,43.60
2024-03-04T05:17:23.517Z,42.00
2024-03-04T05:19:53.454Z,41.58
2024-03-04T05:22:26.287Z,42.88
2024-03-04T05:24:58.613Z,42.08
2024-03-04T05:27:30.863Z,41.13
2024-03-04T05:30:01.665Z,39.78
2024-03-04T05:32:31.570Z,47.13
2024-03-04T05:35:02.681Z,44.72
2024-03-04T05:37:33.087Z,44.28
2024-03-04T05:40:02.986Z,43.05
2024-03-04T05:42:33.148Z,44.85
2024-03-04T05:45:03.017Z,43.67
2024-03-04T05:47:33.084Z,43.30
2024-03-04T05:50:02.935Z,48.67
2024-03-04T05:52:33.488Z,44.45
2024-03-04T05:55:03.763Z,43.80
2024-03-04T05:57:34.609Z,43.55
2024-03-04T06:00:14.705Z,43.75
2024-03-04T06:02:45.612Z,43.25
2024-03-04T06:05:16.784Z,43.05
2024-03-04T06:07:47.404Z,43.08
2024-03-04T06:10:18.662Z,43.40
2024-03-04T06:12:49.312Z,41.53
2024-03-04T06:15:19.216Z,43.55
2024-03-04T06:17:49.540Z,42.28
2024-03-04T06:20:19.552Z,41.65
2024-03-04T06:22:52.808Z,42.65
2024-03-04T06:25:23.600Z,42.30
2024-03-04T06:27:55.458Z,42.53
2024-03-04T06:30:26.423Z,41.83
2024-03-04T06:32:56.265Z,65.35
2024-03-04T06:35:26.736Z,42.67
2024-03-04T06:37:56.653Z,42.00
2024-03-04T06:40:27.734Z,40.33
2024-03-04T06:42:58.111Z,41.78
2024-03-04T06:45:28.860Z,40.42
2024-03-04T06:48:05.025Z,42.17
2024-03-04T06:50:38.042Z,41.67
2024-03-04T06:53:11.695Z,42.00
2024-03-04T06:55:42.126Z,43.90
2024-03-04T06:58:12.084Z,42.90
2024-03-04T07:00:43.234Z,43.05
2024-03-04T07:03:13.751Z,61.20
2024-03-04T07:05:43.527Z,42.15
2024-03-04T07:08:14.063Z,41.60
2024-03-04T07:10:47.958Z,40.72
2024-03-04T07:13:18.084Z,41.92
2024-03-04T07:15:53.947Z,39.97
2024-03-04T07:18:23.938Z,43.25
2024-03-04T07:20:53.732Z,41.75
2024-03-04T07:23:24.797Z,42.50
2024-03-04T07:25:55.549Z,41.97
2024-03-04T07:28:26.100Z,45.05
2024-03-04T07:30:56.675Z,41.85
2024-03-04T07:33:26.558Z,41.17
2024-03-04T07:35:56.489Z,42.17
2024-03-04T07:38:26.670Z,43.70
2024-03-04T07:40:58.004Z,41.63
2024-03-04T07:43:30.791Z,42.63
2024-03-04T07:46:00.966Z,40.72
2024-03-04T07:48:30.782Z,39.97
2024-03-04T07:51:01.172Z,39.30
2024-03-04T07:53:30.986Z,41.15
2024-03-04T07:56:01.324Z,41.70
2024-03-04T07:58:31.242Z,41.65
2024-03-04T08:01:01.962Z,40.65
2024-03-04T08:03:31.837Z,38.97
2024-03-04T08:06:02.837Z,41.80
2024-03-04T08:08:32.589Z,39.50
2024-03-04T08:11:03.584Z,38.53
2024-03-04T08:13:33.917Z,42.35
2024-03-04T08:16:04.324Z,43.42
2024-03-04T08:18:34.902Z,41.75
2024-03-04T08:21:05.334Z,39.50
2024-03-04T08:23:37.019Z,35.35
2024-03-04T08:26:07.985Z,36.53
2024-03-04T08:28:38.301Z,35.20
2024-03-04T08:31:09.335Z,33.33
2024-03-04T08:33:39.571Z,31.85
2024-03-04T08:36:11.069Z,30.65
2024-03-04T08:38:44.828Z,31.35
2024-03-04T08:41:15.328Z,30.90
2024-03-04T08:43:46.372Z,30.95
2024-03-04T08:46:19.867Z,40.05
2024-03-04T08:48:50.237Z,41.08
2024-03-04T08:51:23.954Z,39.97
2024-03-04T08:53:54.274Z,39.25
2024-03-04T08:56:25.161Z,37.38
2024-03-04T08:58:55.865Z,39.50
2024-03-04T09:01:27.723Z,42.50
2024-03-04T09:03:58.506Z,41.40
2024-03-04T09:06:28.584Z,42.47
2024-03-04T09:08:59.801Z,41.83
2024-03-04T09:11:30.101Z,43.15
2024-03-04T09:14:00.095Z,42.53
2024-03-04T09:16:30.218Z,44.85
2024-03-04T09:19:01.015Z,46.10
2024-03-04T09:21:31.138Z,46.28
2024-03-04T09:24:03.091Z,44.17
2024-03-04T09:26:33.324Z,43.13
2024-03-04T09:29:04.473Z,42.15
2024-03-04T09:31:36.384Z,44.08
2024-03-04T09:34:07.486Z,41.60
2024-03-04T09:36:37.317Z,41.90
2024-03-04T09:39:09.686Z,43.55
2024-03-04T09:41:41.582Z,43.72
2024-03-04T09:44:12.393Z,42.97
2024-03-04T09:46:44.782Z,43.92
2024-03-04T09:49:16.535Z,40.85
2024-03-04T09:51:50.255Z,43.08
2024-03-04T09:54:22.751Z,44.25
2024-03-04T09:56:54.102Z,44.17
2024-03-04T09:59:25.211Z,43.10
2024-03-04T10:01:56.194Z,41.47
2024-03-04T10:04:26.981Z,42.65
2024-03-04T10:06:58.538Z,44.45
2024-03-04T10:09:30.865Z,43.03
2024-03-04T10:12:05.613Z,43.95
2024-03-04T10:14:36.359Z,42.13
2024-03-04T10:17:06.934Z,43.88
2024-03-04T10:19:37.995Z,46.60
2024-03-04T10:22:09.916Z,42.53
2024-03-04T10:24:42.846Z,44.20
2024-03-04T10:27:14.775Z,43.70
2024-03-04T10:29:45.040Z,42.97
2024-03-04T10:32:20.096Z,43.75
2024-03-04T10:34:54.014Z,47.58
2024-03-04T10:37:24.249Z,51.45
2024-03-04T10:39:55.916Z,48.70
2024-03-04T10:42:26.562Z,48.85
2024-03-04T10:44:56.883Z,49.25
2024-03-04T10:47:29.185Z,49.63
2024-03-04T10:50:00.184Z,48.40
2024-03-04T10:52:31.153Z,47.45
2024-03-04T10:55:05.280Z,47.30
2024-03-04T10:57:37.206Z,53.53
2024-03-04T11:00:28.413Z,54.22
2024-03-04T11:03:20.678Z,61.70
2024-03-04T11:05:53.913Z,48.05
2024-03-04T11:08:48.475Z,50.22
2024-03-04T11:11:28.484Z,48.47
2024-03-04T11:14:22.574Z,49.25
2024-03-04T11:17:01.882Z,49.22
2024-03-04T11:19:55.966Z,50.60
2024-03-04T11:22:28.331Z,50.60
2024-03-04T11:25:00.185Z,53.42
2024-03-04T11:27:31.858Z,51.45
2024-03-04T11:30:03.439Z,51.30
2024-03-04T11:32:34.617Z,50.15
2024-03-04T11:35:10.637Z,53.17
2024-03-04T11:38:20.279Z,51.45
2024-03-04T11:40:58.967Z,52.95
2024-03-04T11:43:49.587Z,53.63
2024-03-04T11:46:23.296Z,54.35
2024-03-04T11:48:54.948Z,51.80
2024-03-04T11:51:46.304Z,53.00
2024-03-04T11:54:16.405Z,52.25
2024-03-04T11:56:46.988Z,100.10
2024-03-04T11:59:17.387Z,68.93
2024-03-04T12:01:48.196Z,54.53
2024-03-04T12:04:21.062Z,50.85
2024-03-04T12:06:51.369Z,61.47
2024-03-04T12:09:43.868Z,53.05
2024-03-04T12:12:16.202Z,54.20
2024-03-04T12:14:49.443Z,52.72
2024-03-04T12:17:19.640Z,52.25
2024-03-04T12:19:59.875Z,52.53
2024-03-04T12:22:33.511Z,55.10
2024-03-04T12:25:12.140Z,55.33
2024-03-04T12:27:42.825Z,55.85
2024-03-04T12:30:31.162Z,60.92
2024-03-04T12:33:04.761Z,59.30
2024-03-04T12:35:35.611Z,62.45
2024-03-04T12:38:09.367Z,61.20
2024-03-04T12:40:39.772Z,57.63
2024-03-04T12:43:12.887Z,56.55
2024-03-04T12:45:43.248Z,56.25
2024-03-04T12:48:14.434Z,56.50
2024-03-04T12:50:45.853Z,57.28
2024-03-04T12:53:17.404Z,56.63
2024-03-04T12:55:50.631Z,59.97
2024-03-04T12:58:20.732Z,65.78
2024-03-04T13:00:51.087Z,67.55
2024-03-04T13:03:21.393Z,60.08
2024-03-04T13:05:53.672Z,60.60
2024-03-04T13:08:24.255Z,61.40
2024-03-04T13:10:54.220Z,63.15
2024-03-04T13:13:24.414Z,65.05
2024-03-04T13:15:56.971Z,62.17
2024-03-04T13:18:28.724Z,63.53
2024-03-04T13:20:58.767Z,64.60
2024-03-04T13:23:28.582Z,65.22
2024-03-04T13:26:00.169Z,63.25
2024-03-04T13:28:30.310Z,63.20
2024-03-04T13:31:00.228Z,68.07
2024-03-04T13:33:30.500Z,75.15
2024-03-04T13:36:01.982Z,70.57
2024-03-04T13:38:34.297Z,66.50
2024-03-04T13:41:05.144Z,64.50
2024-03-04T13:43:36.693Z,65.45
2024-03-04T13:46:07.298Z,64.43
2024-03-04T13:48:38.472Z,63.10
2024-03-04T13:51:08.637Z,67.13
2024-03-04T13:53:40.209Z,65.93
2024-03-04T13:56:11.202Z,67.65
2024-03-04T13:58:41.310Z,66.53
2024-03-04T14:01:14.178Z,62.95
2024-03-04T14:03:44.604Z,67.13
2024-03-04T14:06:17.691Z,70.13
2024-03-04T14:08:48.589Z,69.85
2024-03-04T14:11:18.740Z,71.68
2024-03-04T14:13:49.057Z,74.75
2024-03-04T14:16:19.534Z,70.97
2024-03-04T14:18:49.912Z,73.75
2024-03-04T14:21:19.727Z,102.80
2024-03-04T14:23:50.114Z,71.35
2024-03-04T14:26:22.932Z,70.47
2024-03-04T14:28:53.146Z,68.10
2024-03-04T14:31:23.329Z,67.75
2024-03-04T14:33:53.833Z,73.45
2024-03-04T14:36:24.016Z,77.15
2024-03-04T14:38:54.357Z,76.88
2024-03-04T14:41:25.010Z,76.65
2024-03-04T14:43:55.491Z,71.40
2024-03-04T14:46:25.507Z,74.88
2024-03-04T14:48:56.584Z,73.50
2024-03-04T14:51:26.839Z,70.13
2024-03-04T14:53:56.839Z,73.63
2024-03-04T14:56:30.911Z,71.50
2024-03-04T14:59:03.948Z,70.80
2024-03-04T15:01:35.646Z,72.70
2024-03-04T15:04:07.738Z,68.60
2024-03-04T15:06:39.165Z,69.03
2024-03-04T15:09:11.488Z,72.40
2024-03-04T15:11:45.379Z,73.40
2024-03-04T15:14:15.625Z,73.22
2024-03-04T15:16:53.755Z,134.07
2024-03-04T15:19:25.304Z,68.97
2024-03-04T15:21:55.186Z,68.72
2024-03-04T15:24:25.375Z,67.72
2024-03-04T15:26:57.037Z,67.82
2024-03-04T15:29:27.393Z,69.90
2024-03-04T15:32:02.028Z,68.05
2024-03-04T15:34:33.028Z,68.60
2024-03-04T15:37:07.005Z,69.93
2024-03-04T15:39:37.405Z,68.85
2024-03-04T15:42:08.620Z,66.95
2024-03-04T15:44:42.045Z,64.80
2024-03-04T15:47:12.210Z,67.95
2024-03-04T15:49:42.388Z,71.47
2024-03-04T15:52:12.774Z,71.50
2024-03-04T15:54:44.353Z,67.57
2024-03-04T15:57:14.729Z,67.85
2024-03-04T15:59:44.584Z,66.93
2024-03-04T16:02:14.601Z,76.93
2024-03-04T16:04:48.846Z,84.25
2024-03-04T16:07:20.535Z,64.50
2024-03-04T16:09:50.821Z,62.55
2024-03-04T16:12:20.968Z,67.90
2024-03-04T16:14:51.465Z,65.38
2024-03-04T16:17:21.511Z,64.57
2024-03-04T16:19:51.990Z,68.95
2024-03-04T16:22:22.220Z,67.05
2024-03-04T16:24:53.668Z,67.13
2024-03-04T16:27:25.497Z,68.82
2024-03-04T16:29:55.960Z,68.38
2024-03-04T16:32:25.935Z,67.90
2024-03-04T16:34:56.382Z,69.18
2024-03-04T16:37:26.371Z,64.38
2024-03-04T16:39:57.053Z,65.75
2024-03-04T16:42:28.257Z,65.60
2024-03-04T16:44:58.402Z,76.85
2024-03-04T16:47:28.376Z,74.80
2024-03-04T16:49:58.722Z,66.43
2024-03-04T16:52:28.819Z,137.48
2024-03-04T16:54:59.843Z,64.70
2024-03-04T16:57:29.945Z,66.22
2024-03-04T16:59:59.857Z,66.95
2024-03-04T17:02:33.039Z,65.20
2024-03-04T17:05:03.384Z,65.78
2024-03-04T17:07:33.563Z,64.90
2024-03-04T17:10:03.776Z,65.40
2024-03-04T17:12:33.681Z,67.28
2024-03-04T17:15:04.048Z,67.07
2024-03-04T17:17:34.444Z,65.20
2024-03-04T17:20:11.202Z,65.60
2024-03-04T17:22:41.685Z,67.00
2024-03-04T17:25:11.900Z,65.18
2024-03-04T17:27:44.431Z,65.70
2024-03-04T17:30:15.223Z,67.93
2024-03-04T17:32:45.833Z,69.03
2024-03-04T17:35:17.439Z,68.43
2024-03-04T17:37:48.922Z,68.68
2024-03-04T17:40:19.334Z,65.30
2024-03-04T17:42:49.203Z,69.60
2024-03-04T17:45:19.673Z,70.30
2024-03-04T17:47:49.693Z,69.95
2024-03-04T17:50:19.906Z,73.85
2024-03-04T17:52:49.935Z,69.53
2024-03-04T17:55:20.369Z,70.88
2024-03-04T17:57:50.362Z,71.57
2024-03-04T18:00:21.219Z,73.47
2024-03-04T18:02:52.237Z,71.72
2024-03-04T18:05:22.514Z,75.70
2024-03-04T18:07:53.526Z,74.32
2024-03-04T18:10:24.427Z,74.15
2024-03-04T18:12:54.620Z,77.70
2024-03-04T18:15:24.430Z,71.40
2024-03-04T18:17:54.528Z,74.97
2024-03-04T18:20:24.382Z,78.68
2024-03-04T18:22:54.446Z,74.25
2024-03-04T18:25:24.386Z,79.20
2024-03-04T18:27:54.914Z,76.60
2024-03-04T18:30:24.712Z,73.35
2024-03-04T18:32:54.864Z,74.00
2024-03-04T18:35:24.795Z,72.20
2024-03-04T18:37:54.905Z,72.50
2024-03-04T18:40:25.105Z,76.30
2024-03-04T18:42:55.197Z,73.38
2024-03-04T18:45:25.166Z,75.55
2024-03-04T18:47:56.689Z,73.43
2024-03-04T18:50:28.160Z,77.00
2024-03-04T18:52:58.705Z,77.07
2024-03-04T18:55:28.930Z,80.43
2024-03-04T18:57:59.216Z,79.82
2024-03-04T19:00:30.283Z,75.93
2024-03-04T19:03:00.529Z,72.95
2024-03-04T19:05:33.634Z,76.40
2024-03-04T19:08:06.231Z,78.57
2024-03-04T19:10:36.373Z,80.28
2024-03-04T19:13:06.611Z,75.95
2024-03-04T19:15:36.871Z,73.82
2024-03-04T19:18:07.072Z,76.78
2024-03-04T19:20:41.607Z,76.65
2024-03-04T19:23:11.621Z,80.85
2024-03-04T19:25:41.514Z,81.88
2024-03-04T19:28:14.250Z,78.03
2024-03-04T19:30:46.477Z,79.88
2024-03-04T19:33:16.763Z,75.35
2024-03-04T19:35:47.746Z,72.57
2024-03-04T19:38:18.081Z,74.07
2024-03-04T19:40:48.167Z,76.68
2024-03-04T19:43:18.365Z,74.53
2024-03-04T19:45:48.253Z,76.20
2024-03-04T19:48:18.547Z,74.28
2024-03-04T19:50:51.499Z,74.95
2024-03-04T19:53:21.701Z,74.20
2024-03-04T19:55:51.756Z,81.30
2024-03-04T19:58:21.824Z,85.22
2024-03-04T20:00:51.778Z,81.82
2024-03-04T20:03:22.059Z,90.68
2024-03-04T20:05:52.459Z,90.03
2024-03-04T20:08:22.753Z,80.43
2024-03-04T20:10:52.858Z,88.95
2024-03-04T20:13:23.013Z,83.38
2024-03-04T20:15:52.968Z,86.40
2024-03-04T20:18:23.264Z,88.50
2024-03-04T20:20:53.156Z,90.78
2024-03-04T20:23:23.568Z,90.38
2024-03-04T20:25:53.821Z,86.82
2024-03-04T20:28:24.578Z,88.95
2024-03-04T20:30:55.032Z,82.72
2024-03-04T20:33:25.852Z,90.63
2024-03-04T20:35:55.782Z,86.75
2024-03-04T20:38:25.770Z,84.32
2024-03-04T20:40:55.795Z,86.22
2024-03-04T20:43:25.985Z,79.32
2024-03-04T20:45:55.859Z,81.82
2024-03-04T20:48:30.638Z,87.28
2024-03-04T20:51:00.913Z,88.95
2024-03-04T20:53:31.337Z,90.40
2024-03-04T20:56:01.639Z,92.63
2024-03-04T20:58:31.635Z,90.10
2024-03-04T21:01:01.765Z,89.22
2024-03-04T21:03:31.658Z,87.88
2024-03-04T21:06:03.242Z,87.95
2024-03-04T21:08:34.269Z,86.22
2024-03-04T21:11:04.659Z,85.63
2024-03-04T21:13:34.619Z,83.88
2024-03-04T21:16:04.620Z,80.30
2024-03-04T21:18:34.510Z,83.63
2024-03-04T21:21:04.746Z,82.07
2024-03-04T21:23:34.644Z,79.70
2024-03-04T21:26:04.892Z,81.13
2024-03-04T21:28:35.471Z,80.78
2024-03-04T21:31:06.463Z,77.55
2024-03-04T21:33:36.432Z,76.25
2024-03-04T21:36:06.458Z,76.43
2024-03-04T21:38:36.668Z,77.78
2024-03-04T21:41:06.580Z,78.95
2024-03-04T21:43:36.682Z,76.18
2024-03-04T21:46:06.607Z,77.25
2024-03-04T21:48:38.829Z,79.72
2024-03-04T21:51:09.122Z,77.10
2024-03-04T21:53:39.264Z,76.20
2024-03-04T21:56:13.082Z,79.53
2024-03-04T21:58:43.109Z,82.38
2024-03-04T22:01:26.149Z,81.10
2024-03-04T22:03:56.470Z,85.47
2024-03-04T22:06:26.413Z,87.45
2024-03-04T22:08:57.645Z,87.10
2024-03-04T22:11:28.022Z,90.05
2024-03-04T22:13:58.016Z,86.32
2024-03-04T22:16:28.959Z,84.38
2024-03-04T22:18:58.796Z,85.93
2024-03-04T22:21:28.850Z,82.97
2024-03-04T22:23:58.738Z,77.68
2024-03-04T22:26:28.782Z,81.13
2024-03-04T22:28:59.884Z,80.93
2024-03-04T22:31:30.240Z,84.43
2024-03-04T22:34:00.182Z,85.05
2024-03-04T22:36:30.218Z,80.68
2024-03-04T22:39:00.005Z,87.18
2024-03-04T22:41:30.369Z,87.78
2024-03-04T22:44:00.412Z,88.40
2024-03-04T22:46:30.486Z,84.28
2024-03-04T22:49:00.267Z,82.38
2024-03-04T22:51:31.369Z,79.00
2024-03-04T22:54:01.411Z,78.43
2024-03-04T22:56:31.927Z,84.80
2024-03-04T22:59:02.166Z,81.95
2024-03-04T23:01:33.014Z,83.32
2024-03-04T23:04:03.052Z,88.65
2024-03-04T23:06:33.154Z,94.95
2024-03-04T23:09:06.695Z,86.22
2024-03-04T23:11:36.915Z,92.55
2024-03-04T23:14:06.888Z,89.55
2024-03-04T23:16:37.148Z,93.03
2024-03-04T23:19:08.231Z,97.63
2024-03-04T23:21:38.396Z,94.95
2024-03-04T23:24:08.555Z,90.20
2024-03-04T23:26:38.500Z,93.13
2024-03-04T23:29:09.620Z,92.50
2024-03-04T23:31:39.740Z,88.25
2024-03-04T23:34:12.962Z,90.47
2024-03-04T23:36:43.209Z,95.88
2024-03-04T23:39:14.159Z,92.03
2024-03-04T23:41:44.310Z,93.70
2024-03-04T23:44:14.201Z,100.72
2024-03-04T23:46:44.302Z,107.05
2024-03-04T23:49:14.390Z,95.18
2024-03-04T23:51:45.374Z,97.80
2024-03-04T23:54:16.771Z,96.68
2024-03-04T23:56:46.972Z,96.07
2024-03-04T23:59:16.777Z,97.72
